createdAt,value
2023-01-17T00:01:22.991Z,19.77
2023-01-17T00:03:50.031Z,20.30
2023-01-17T00:06:16.899Z,24.20
2023-01-17T00:08:44.031Z,18.83
2023-01-17T00:11:11.296Z,19.80
2023-01-17T00:13:38.336Z,18.20
2023-01-17T00:16:05.471Z,23.03
2023-01-17T00:18:32.393Z,24.58
2023-01-17T00:20:59.294Z,19.63
2023-01-17T00:23:26.607Z,17.88
2023-01-17T00:25:53.857Z,25.60
2023-01-17T00:28:20.743Z,27.63
2023-01-17T00:30:47.716Z,41.17
2023-01-17T00:33:14.693Z,29.65
2023-01-17T00:35:41.772Z,22.70
2023-01-17T00:38:14.159Z,17.75
2023-01-17T00:40:43.541Z,21.80
2023-01-17T00:43:14.813Z,22.92
2023-01-17T00:45:44.014Z,21.05
2023-01-17T00:48:10.903Z,23.17
2023-01-17T00:50:38.062Z,22.00
2023-01-17T00:53:05.862Z,22.63
2023-01-17T00:55:33.762Z,20.38
2023-01-17T00:58:09.584Z,19.13
2023-01-17T01:00:36.570Z,18.25
2023-01-17T01:03:09.390Z,17.67
2023-01-17T01:05:38.064Z,17.70
2023-01-17T01:08:26.001Z,20.52
2023-01-17T01:10:52.983Z,19.63
2023-01-17T01:13:24.098Z,18.13
2023-01-17T01:15:50.985Z,18.48
2023-01-17T01:18:18.065Z,12.73
2023-01-17T01:20:44.890Z,13.95
2023-01-17T01:23:11.880Z,16.35
2023-01-17T01:25:38.711Z,15.73
2023-01-17T01:28:09.991Z,17.75
2023-01-17T01:30:36.912Z,18.67
2023-01-17T01:33:12.049Z,14.45
2023-01-17T01:35:38.876Z,20.15
2023-01-17T01:38:05.920Z,21.17
2023-01-17T01:40:32.868Z,22.50
2023-01-17T01:43:01.854Z,19.67
2023-01-17T01:45:31.027Z,18.63
2023-01-17T01:48:27.181Z,20.08
2023-01-17T01:50:54.228Z,22.25
2023-01-17T01:53:21.947Z,22.83
2023-01-17T01:55:51.122Z,23.37
2023-01-17T01:58:28.905Z,20.55
2023-01-17T02:00:55.991Z,23.10
2023-01-17T02:03:32.043Z,19.83
2023-01-17T02:06:07.262Z,16.20
2023-01-17T02:08:34.830Z,18.40
2023-01-17T02:11:03.311Z,21.35
2023-01-17T02:13:30.775Z,22.35
2023-01-17T02:15:57.738Z,16.58
2023-01-17T02:18:53.812Z,17.83
2023-01-17T02:21:34.411Z,19.80
2023-01-17T02:24:25.995Z,20.63
2023-01-17T02:27:48.396Z,21.42
2023-01-17T02:30:38.162Z,21.67
2023-01-17T02:33:25.263Z,17.63
2023-01-17T02:35:59.989Z,17.10
2023-01-17T02:38:56.135Z,16.52
2023-01-17T02:41:29.852Z,18.90
2023-01-17T02:43:57.194Z,18.77
2023-01-17T02:46:24.503Z,19.25
2023-01-17T02:48:52.397Z,19.80
2023-01-17T02:51:22.051Z,16.88
2023-01-17T02:54:13.848Z,17.65
2023-01-17T02:56:48.043Z,18.00
2023-01-17T02:59:36.117Z,19.70
2023-01-17T03:02:35.052Z,23.30
2023-01-17T03:05:05.052Z,21.00
2023-01-17T03:07:33.297Z,18.65
2023-01-17T03:10:02.923Z,18.67
2023-01-17T03:12:32.226Z,18.17
2023-01-17T03:14:59.292Z,20.37
2023-01-17T03:17:31.627Z,17.02
2023-01-17T03:19:59.203Z,18.63
2023-01-17T03:22:26.157Z,17.17
2023-01-17T03:24:53.042Z,17.15
2023-01-17T03:27:20.041Z,16.40
2023-01-17T03:29:46.983Z,15.57
2023-01-17T03:32:14.014Z,15.05
2023-01-17T03:34:40.978Z,15.18
2023-01-17T03:37:07.976Z,19.25
2023-01-17T03:39:34.768Z,19.13
2023-01-17T03:42:01.994Z,17.02
2023-01-17T03:44:28.929Z,15.95
2023-01-17T03:46:55.952Z,16.60
2023-01-17T03:49:22.942Z,19.45
2023-01-17T03:51:49.902Z,15.97
2023-01-17T03:54:16.921Z,16.05
2023-01-17T03:56:44.002Z,20.58
2023-01-17T03:59:13.053Z,18.13
2023-01-17T04:01:40.340Z,17.27
2023-01-17T04:04:07.464Z,18.20
2023-01-17T04:06:34.346Z,16.08
2023-01-17T04:09:01.309Z,16.27
2023-01-17T04:11:28.694Z,13.63
2023-01-17T04:13:55.666Z,13.88
2023-01-17T04:16:28.494Z,16.00
2023-01-17T04:18:55.794Z,12.77
2023-01-17T04:21:22.975Z,12.73
2023-01-17T04:23:50.380Z,16.27
2023-01-17T04:26:17.359Z,17.60
2023-01-17T04:28:44.539Z,14.43
2023-01-17T04:31:16.331Z,13.13
2023-01-17T04:33:43.497Z,16.08
2023-01-17T04:36:10.345Z,15.30
2023-01-17T04:38:37.504Z,13.43
2023-01-17T04:41:04.811Z,10.27
2023-01-17T04:43:31.710Z,12.57
2023-01-17T04:45:59.301Z,12.77
2023-01-17T04:48:26.587Z,15.55
2023-01-17T04:51:03.718Z,16.85
2023-01-17T04:53:31.167Z,15.13
2023-01-17T04:55:58.359Z,15.15
2023-01-17T04:58:25.333Z,14.48
2023-01-17T05:00:52.182Z,11.35
2023-01-17T05:03:20.551Z,11.85
2023-01-17T05:05:47.651Z,11.33
2023-01-17T05:08:15.197Z,12.48
2023-01-17T05:10:42.106Z,14.02
2023-01-17T05:13:11.098Z,12.60
2023-01-17T05:15:38.410Z,16.45
2023-01-17T05:18:05.429Z,14.20
2023-01-17T05:20:32.378Z,11.57
2023-01-17T05:22:59.404Z,14.88
2023-01-17T05:25:28.846Z,17.80
2023-01-17T05:27:56.155Z,15.48
2023-01-17T05:30:23.447Z,15.83
2023-01-17T05:32:54.902Z,16.02
2023-01-17T05:35:24.993Z,11.38
2023-01-17T05:37:53.288Z,14.43
2023-01-17T05:40:22.684Z,12.00
2023-01-17T05:42:52.198Z,15.13
2023-01-17T05:45:21.063Z,17.02
2023-01-17T05:47:50.196Z,16.48
2023-01-17T05:50:29.241Z,17.10
2023-01-17T05:53:11.389Z,17.45
2023-01-17T05:55:38.546Z,15.53
2023-01-17T05:58:06.874Z,15.82
2023-01-17T06:00:33.906Z,15.25
2023-01-17T06:03:01.389Z,14.98
2023-01-17T06:05:29.820Z,16.38
2023-01-17T06:07:57.289Z,15.73
2023-01-17T06:10:25.338Z,16.23
2023-01-17T06:13:20.627Z,17.30
2023-01-17T06:15:48.376Z,17.70
2023-01-17T06:18:17.626Z,18.70
2023-01-17T06:20:45.317Z,19.83
2023-01-17T06:23:14.286Z,31.10
2023-01-17T06:25:43.862Z,34.42
2023-01-17T06:28:12.385Z,25.40
2023-01-17T06:30:39.644Z,24.55
2023-01-17T06:33:06.664Z,27.93
2023-01-17T06:35:33.998Z,31.65
2023-01-17T06:38:00.883Z,32.95
2023-01-17T06:40:29.065Z,38.58
2023-01-17T06:43:03.261Z,37.15
2023-01-17T06:45:31.757Z,23.20
2023-01-17T06:48:00.660Z,24.98
2023-01-17T06:50:27.892Z,33.97
2023-01-17T06:53:00.541Z,31.63
2023-01-17T06:55:29.886Z,33.92
2023-01-17T06:57:58.431Z,31.87
2023-01-17T07:00:26.531Z,30.77
2023-01-17T07:02:54.055Z,34.17
2023-01-17T07:05:21.414Z,28.98
2023-01-17T07:07:48.696Z,30.52
2023-01-17T07:10:16.137Z,31.37
2023-01-17T07:12:43.074Z,30.17
2023-01-17T07:15:10.646Z,27.58
2023-01-17T07:17:37.779Z,27.50
2023-01-17T07:20:05.154Z,26.52
2023-01-17T07:22:32.153Z,25.63
2023-01-17T07:24:58.974Z,24.70
2023-01-17T07:27:26.886Z,25.95
2023-01-17T07:29:54.353Z,26.27
2023-01-17T07:32:21.474Z,26.52
2023-01-17T07:34:49.191Z,25.33
2023-01-17T07:37:16.155Z,24.23
2023-01-17T07:39:43.160Z,23.33
2023-01-17T07:42:10.035Z,23.45
2023-01-17T07:44:36.853Z,23.58
2023-01-17T07:47:03.695Z,22.80
2023-01-17T07:49:30.585Z,24.40
2023-01-17T07:51:57.499Z,24.92
2023-01-17T07:54:24.445Z,25.50
2023-01-17T07:56:51.320Z,30.92
2023-01-17T07:59:18.341Z,28.43
2023-01-17T08:01:45.532Z,31.98
2023-01-17T08:04:12.737Z,31.00
2023-01-17T08:06:43.297Z,28.67
2023-01-17T08:09:10.235Z,32.20
2023-01-17T08:11:37.240Z,29.50
2023-01-17T08:14:04.123Z,31.27
2023-01-17T08:16:30.994Z,28.33
2023-01-17T08:18:57.920Z,17.30
2023-01-17T08:21:24.963Z,15.13
2023-01-17T08:23:56.202Z,13.97
2023-01-17T08:26:23.239Z,13.77
2023-01-17T08:28:58.534Z,13.65
2023-01-17T08:31:25.449Z,12.48
2023-01-17T08:33:52.403Z,12.27
2023-01-17T08:36:19.361Z,11.83
2023-01-17T08:38:46.263Z,12.20
2023-01-17T08:41:13.155Z,11.52
2023-01-17T08:43:40.040Z,11.98
2023-01-17T08:46:06.950Z,11.00
2023-01-17T08:48:33.835Z,12.50
2023-01-17T08:51:02.324Z,12.93
2023-01-17T08:53:29.150Z,13.63
2023-01-17T08:56:00.956Z,12.85
2023-01-17T08:58:30.689Z,12.43
2023-01-17T09:01:06.128Z,12.97
2023-01-17T09:03:34.772Z,12.30
2023-01-17T09:06:07.441Z,13.40
2023-01-17T09:08:35.312Z,12.98
2023-01-17T09:11:12.616Z,11.80
2023-01-17T09:13:40.412Z,11.90
2023-01-17T09:16:08.393Z,11.88
2023-01-17T09:18:36.446Z,9.10
2023-01-17T09:21:14.752Z,9.07
2023-01-17T09:23:42.296Z,8.95
2023-01-17T09:26:28.269Z,8.90
2023-01-17T09:28:56.049Z,8.32
2023-01-17T09:31:23.904Z,8.98
2023-01-17T09:33:52.047Z,8.73
2023-01-17T09:36:19.610Z,9.27
2023-01-17T09:38:47.130Z,7.90
2023-01-17T09:41:24.977Z,6.40
2023-01-17T09:44:07.734Z,6.90
2023-01-17T09:46:41.400Z,6.53
2023-01-17T09:49:30.522Z,6.65
2023-01-17T09:51:58.023Z,7.30
2023-01-17T09:54:32.890Z,6.75
2023-01-17T09:57:13.630Z,6.63
2023-01-17T10:00:04.793Z,6.43
2023-01-17T10:03:15.768Z,6.97
2023-01-17T10:06:07.339Z,7.20
2023-01-17T10:08:34.174Z,7.03
2023-01-17T10:11:13.071Z,7.50
2023-01-17T10:13:53.954Z,7.55
2023-01-17T10:16:42.081Z,7.45
2023-01-17T10:19:31.477Z,7.00
2023-01-17T10:22:40.212Z,7.72
2023-01-17T10:25:35.638Z,8.40
2023-01-17T10:28:12.376Z,8.63
2023-01-17T10:30:43.861Z,8.57
2023-01-17T10:33:41.669Z,5.73
2023-01-17T10:36:15.953Z,5.35
2023-01-17T10:38:47.625Z,3.30
2023-01-17T10:41:29.491Z,3.35
2023-01-17T10:44:20.023Z,3.53
2023-01-17T10:47:10.924Z,3.57
2023-01-17T10:49:46.018Z,3.60
2023-01-17T10:52:19.468Z,4.30
2023-01-17T10:54:55.223Z,3.40
2023-01-17T10:57:25.207Z,3.65
2023-01-17T10:59:58.069Z,3.30
2023-01-17T11:02:30.067Z,3.20
2023-01-17T11:05:01.255Z,3.30
2023-01-17T11:07:29.752Z,3.10
2023-01-17T11:09:59.314Z,3.72
2023-01-17T11:12:45.225Z,3.40
2023-01-17T11:15:12.074Z,3.30
2023-01-17T11:17:44.769Z,3.40
2023-01-17T11:20:28.247Z,3.17
2023-01-17T11:23:18.530Z,3.40
2023-01-17T11:25:57.791Z,3.77
2023-01-17T11:28:27.797Z,4.05
2023-01-17T11:31:02.548Z,3.90
2023-01-17T11:33:44.509Z,3.65
2023-01-17T11:36:29.950Z,4.13
2023-01-17T11:38:58.186Z,2.90
2023-01-17T11:41:26.489Z,3.08
2023-01-17T11:43:58.798Z,3.40
2023-01-17T11:46:27.133Z,3.65
2023-01-17T11:48:59.201Z,3.20
2023-01-17T11:51:33.386Z,3.53
2023-01-17T11:54:18.641Z,3.60
2023-01-17T11:56:45.594Z,3.88
2023-01-17T11:59:29.735Z,3.20
2023-01-17T12:02:02.259Z,3.35
2023-01-17T12:04:43.522Z,3.13
2023-01-17T12:07:29.265Z,3.00
2023-01-17T12:10:03.509Z,2.97
2023-01-17T12:12:44.105Z,3.30
2023-01-17T12:16:07.832Z,3.13
2023-01-17T12:18:40.752Z,3.00
2023-01-17T12:21:17.638Z,3.10
2023-01-17T12:24:02.439Z,2.67
2023-01-17T12:27:09.679Z,2.80
2023-01-17T12:29:54.717Z,2.95
2023-01-17T12:32:30.661Z,2.90
2023-01-17T12:35:15.501Z,2.65
2023-01-17T12:37:52.692Z,2.80
2023-01-17T12:40:37.530Z,3.30
2023-01-17T12:43:22.304Z,3.42
2023-01-17T12:45:52.468Z,3.20
2023-01-17T12:48:22.401Z,3.30
2023-01-17T12:51:24.755Z,3.50
2023-01-17T12:54:09.705Z,3.70
2023-01-17T12:56:54.185Z,3.45
2023-01-17T12:59:48.354Z,3.27
2023-01-17T13:02:52.516Z,3.45
2023-01-17T13:05:45.218Z,3.20
2023-01-17T13:08:20.915Z,3.50
2023-01-17T13:11:02.485Z,3.20
2023-01-17T13:13:31.039Z,3.50
2023-01-17T13:16:03.139Z,3.28
2023-01-17T13:18:30.305Z,2.92
2023-01-17T13:21:29.052Z,2.92
2023-01-17T13:23:59.024Z,3.13
2023-01-17T13:26:49.062Z,3.00
2023-01-17T13:29:33.898Z,3.03
2023-01-17T13:32:28.668Z,2.58
2023-01-17T13:35:21.262Z,2.90
2023-01-17T13:38:26.216Z,2.80
2023-01-17T13:41:11.263Z,2.57
2023-01-17T13:43:41.477Z,3.10
2023-01-17T13:46:08.408Z,3.05
2023-01-17T13:48:36.867Z,2.88
2023-01-17T13:51:05.951Z,3.80
2023-01-17T13:53:35.833Z,3.33
2023-01-17T13:56:26.270Z,3.30
2023-01-17T13:59:01.768Z,3.45
2023-01-17T14:01:34.619Z,4.10
2023-01-17T14:04:04.743Z,3.13
2023-01-17T14:06:40.493Z,3.30
2023-01-17T14:09:31.566Z,3.88
2023-01-17T14:12:24.364Z,3.72
2023-01-17T14:14:54.634Z,3.83
2023-01-17T14:17:21.517Z,3.60
2023-01-17T14:19:53.357Z,3.30
2023-01-17T14:22:20.167Z,3.65
2023-01-17T14:25:03.170Z,3.95
2023-01-17T14:27:34.139Z,4.00
2023-01-17T14:30:05.777Z,4.82
2023-01-17T14:32:35.625Z,5.67
2023-01-17T14:35:03.956Z,4.53
2023-01-17T14:37:46.397Z,4.53
2023-01-17T14:40:25.121Z,4.53
2023-01-17T14:43:23.251Z,10.05
2023-01-17T14:45:57.732Z,15.10
2023-01-17T14:48:24.871Z,9.82
2023-01-17T14:50:54.000Z,9.10
2023-01-17T14:53:24.347Z,4.70
2023-01-17T14:55:53.666Z,3.92
2023-01-17T14:58:25.980Z,3.53
2023-01-17T15:00:57.935Z,4.13
2023-01-17T15:03:25.037Z,4.22
2023-01-17T15:05:54.175Z,3.50
2023-01-17T15:08:25.208Z,4.45
2023-01-17T15:11:03.612Z,3.87
2023-01-17T15:13:44.208Z,4.00
2023-01-17T15:16:25.103Z,4.03
2023-01-17T15:18:53.730Z,3.80
2023-01-17T15:21:24.945Z,4.10
2023-01-17T15:23:57.398Z,3.93
2023-01-17T15:26:27.363Z,3.88
2023-01-17T15:29:07.011Z,3.83
2023-01-17T15:31:49.634Z,4.18
2023-01-17T15:34:31.989Z,4.20
2023-01-17T15:37:07.907Z,3.90
2023-01-17T15:39:37.563Z,4.15
2023-01-17T15:42:19.002Z,4.32
2023-01-17T15:44:49.201Z,4.30
2023-01-17T15:47:34.342Z,4.22
2023-01-17T15:50:22.166Z,3.80
2023-01-17T15:52:50.555Z,4.40
2023-01-17T15:55:26.388Z,4.45
2023-01-17T15:57:53.345Z,4.25
2023-01-17T16:00:27.831Z,3.97
2023-01-17T16:02:55.420Z,4.20
2023-01-17T16:05:22.885Z,4.30
2023-01-17T16:07:52.348Z,4.32
2023-01-17T16:10:20.774Z,3.97
2023-01-17T16:12:49.718Z,3.90
2023-01-17T16:15:18.395Z,4.33
2023-01-17T16:17:48.581Z,4.07
2023-01-17T16:20:21.342Z,4.43
2023-01-17T16:22:49.735Z,4.90
2023-01-17T16:25:19.531Z,5.18
2023-01-17T16:27:47.027Z,5.53
2023-01-17T16:30:17.615Z,5.10
2023-01-17T16:32:46.312Z,4.47
2023-01-17T16:35:19.298Z,4.15
2023-01-17T16:37:53.310Z,6.00
2023-01-17T16:40:22.583Z,6.90
2023-01-17T16:42:49.442Z,7.15
2023-01-17T16:45:17.821Z,7.50
2023-01-17T16:47:46.453Z,8.40
2023-01-17T16:50:15.515Z,5.32
2023-01-17T16:52:42.812Z,5.00
2023-01-17T16:55:14.721Z,5.32
2023-01-17T16:57:41.771Z,5.13
2023-01-17T17:00:10.480Z,4.72
2023-01-17T17:02:37.557Z,5.30
2023-01-17T17:05:04.998Z,4.90
2023-01-17T17:07:32.049Z,4.95
2023-01-17T17:10:00.404Z,4.75
2023-01-17T17:12:27.331Z,4.80
2023-01-17T17:14:54.204Z,5.30
2023-01-17T17:17:21.127Z,5.20
2023-01-17T17:19:48.054Z,5.30
2023-01-17T17:22:15.021Z,4.93
2023-01-17T17:24:42.035Z,4.75
2023-01-17T17:27:08.904Z,5.13
2023-01-17T17:29:35.837Z,4.40
2023-01-17T17:32:02.728Z,4.30
2023-01-17T17:34:29.680Z,5.25
2023-01-17T17:36:56.596Z,4.85
2023-01-17T17:39:23.439Z,4.65
2023-01-17T17:41:50.311Z,4.53
2023-01-17T17:44:17.156Z,4.13
2023-01-17T17:46:44.101Z,4.40
2023-01-17T17:49:11.033Z,3.42
2023-01-17T17:51:39.934Z,3.80
2023-01-17T17:54:12.086Z,3.87
2023-01-17T17:56:40.038Z,3.95
2023-01-17T17:59:08.961Z,3.50
2023-01-17T18:01:36.262Z,3.00
2023-01-17T18:04:04.373Z,3.10
2023-01-17T18:06:31.297Z,3.70
2023-01-17T18:08:58.238Z,3.58
2023-01-17T18:11:26.943Z,3.42
2023-01-17T18:13:55.701Z,3.50
2023-01-17T18:16:26.104Z,3.75
2023-01-17T18:18:55.664Z,3.87
2023-01-17T18:21:25.510Z,4.22
2023-01-17T18:23:57.777Z,3.80
2023-01-17T18:26:29.871Z,4.10
2023-01-17T18:28:58.174Z,3.67
2023-01-17T18:31:27.671Z,4.00
2023-01-17T18:33:56.303Z,3.85
2023-01-17T18:36:24.340Z,4.03
2023-01-17T18:38:52.334Z,3.88
2023-01-17T18:41:28.458Z,4.22
2023-01-17T18:43:55.606Z,4.17
2023-01-17T18:46:23.214Z,3.55
2023-01-17T18:48:50.265Z,3.75
2023-01-17T18:51:20.363Z,3.58
2023-01-17T18:53:47.335Z,3.63
2023-01-17T18:56:20.348Z,3.33
2023-01-17T18:58:49.500Z,4.30
2023-01-17T19:01:22.064Z,11.10
2023-01-17T19:03:51.948Z,9.15
2023-01-17T19:06:22.310Z,6.30
2023-01-17T19:08:52.229Z,5.87
2023-01-17T19:11:23.693Z,5.72
2023-01-17T19:13:50.744Z,5.15
2023-01-17T19:16:21.104Z,4.50
2023-01-17T19:18:48.081Z,4.60
2023-01-17T19:21:17.399Z,4.07
2023-01-17T19:23:44.873Z,3.15
2023-01-17T19:26:13.792Z,3.00
2023-01-17T19:28:42.672Z,3.00
2023-01-17T19:31:16.673Z,3.15
2023-01-17T19:33:45.640Z,3.10
2023-01-17T19:36:18.402Z,3.50
2023-01-17T19:39:03.101Z,3.38
2023-01-17T19:41:32.039Z,3.40
2023-01-17T19:44:01.594Z,3.70
2023-01-17T19:46:29.273Z,3.00
2023-01-17T19:48:57.803Z,3.80
2023-01-17T19:51:25.560Z,3.75
2023-01-17T19:53:52.404Z,4.20
2023-01-17T19:56:22.519Z,4.05
2023-01-17T19:58:49.560Z,4.23
2023-01-17T20:01:20.013Z,3.90
2023-01-17T20:03:47.452Z,4.18
2023-01-17T20:06:20.152Z,4.25
2023-01-17T20:08:47.001Z,4.20
2023-01-17T20:11:22.722Z,4.47
2023-01-17T20:13:52.717Z,4.28
2023-01-17T20:16:23.430Z,4.38
2023-01-17T20:18:50.661Z,4.70
2023-01-17T20:21:20.606Z,4.45
2023-01-17T20:23:48.505Z,4.80
2023-01-17T20:26:17.881Z,4.90
2023-01-17T20:28:47.005Z,4.60
2023-01-17T20:31:23.111Z,5.25
2023-01-17T20:33:50.994Z,4.90
2023-01-17T20:36:20.202Z,4.93
2023-01-17T20:38:47.250Z,4.18
2023-01-17T20:41:20.830Z,4.90
2023-01-17T20:43:52.065Z,4.70
2023-01-17T20:46:20.852Z,3.85
2023-01-17T20:48:50.661Z,4.13
2023-01-17T20:51:22.031Z,4.25
2023-01-17T20:53:54.362Z,4.68
2023-01-17T20:56:21.201Z,4.13
2023-01-17T20:58:49.579Z,4.13
2023-01-17T21:01:18.992Z,3.90
2023-01-17T21:03:47.251Z,4.70
2023-01-17T21:06:14.860Z,4.80
2023-01-17T21:08:45.158Z,3.40
2023-01-17T21:11:14.313Z,3.60
2023-01-17T21:13:41.629Z,3.87
2023-01-17T21:16:10.644Z,3.63
2023-01-17T21:18:37.750Z,3.20
2023-01-17T21:21:16.724Z,4.32
2023-01-17T21:23:44.602Z,4.85
2023-01-17T21:26:16.763Z,3.60
2023-01-17T21:28:45.983Z,4.78
2023-01-17T21:31:31.102Z,4.90
2023-01-17T21:33:59.461Z,5.50
2023-01-17T21:36:31.746Z,5.82
2023-01-17T21:39:00.222Z,5.30
2023-01-17T21:41:29.869Z,4.93
2023-01-17T21:43:58.766Z,4.50
2023-01-17T21:46:26.788Z,5.32
2023-01-17T21:48:53.786Z,5.10
2023-01-17T21:51:20.761Z,4.53
2023-01-17T21:53:47.689Z,4.82
2023-01-17T21:56:14.988Z,4.55
2023-01-17T21:58:41.813Z,5.30
2023-01-17T22:01:13.394Z,4.47
2023-01-17T22:03:40.476Z,5.13
2023-01-17T22:06:07.517Z,5.22
2023-01-17T22:08:35.108Z,5.85
2023-01-17T22:11:07.398Z,4.90
2023-01-17T22:13:35.160Z,5.40
2023-01-17T22:16:04.551Z,5.57
2023-01-17T22:18:33.240Z,5.72
2023-01-17T22:21:04.566Z,5.07
2023-01-17T22:23:31.495Z,5.90
2023-01-17T22:26:06.244Z,5.03
2023-01-17T22:28:33.820Z,4.83
2023-01-17T22:31:11.160Z,4.82
2023-01-17T22:33:39.667Z,4.82
2023-01-17T22:36:07.702Z,4.15
2023-01-17T22:38:35.379Z,4.80
2023-01-17T22:41:05.355Z,5.27
2023-01-17T22:43:32.239Z,4.82
2023-01-17T22:46:00.064Z,5.65
2023-01-17T22:48:27.009Z,5.85
2023-01-17T22:50:58.311Z,5.15
2023-01-17T22:53:25.194Z,5.20
2023-01-17T22:56:02.229Z,5.50
2023-01-17T22:58:29.393Z,5.25
2023-01-17T23:01:03.704Z,5.18
2023-01-17T23:03:30.616Z,4.55
2023-01-17T23:05:57.564Z,3.97
2023-01-17T23:08:24.738Z,3.97
2023-01-17T23:10:51.622Z,4.10
2023-01-17T23:13:18.504Z,4.18
2023-01-17T23:15:45.430Z,3.67
2023-01-17T23:18:12.324Z,4.00
2023-01-17T23:20:39.293Z,3.25
2023-01-17T23:23:06.262Z,3.10
2023-01-17T23:25:33.166Z,3.65
2023-01-17T23:27:59.995Z,3.40
2023-01-17T23:30:33.410Z,3.40
2023-01-17T23:33:08.810Z,3.35
2023-01-17T23:35:41.626Z,3.47
2023-01-17T23:38:13.808Z,3.25
2023-01-17T23:40:41.359Z,3.25
2023-01-17T23:43:11.759Z,3.13
2023-01-17T23:45:39.228Z,3.10
2023-01-17T23:48:07.717Z,3.00
2023-01-17T23:50:34.776Z,3.00
2023-01-17T23:53:02.664Z,3.00
2023-01-17T23:55:29.500Z,2.80
2023-01-17T23:57:56.443Z,3.30
